createdAt,value
2018-12-22T00:00:15.756Z,9.00
2018-12-22T00:02:45.200Z,7.80
2018-12-22T00:05:14.624Z,7.80
2018-12-22T00:07:44.099Z,9.90
2018-12-22T00:10:13.358Z,7.70
2018-12-22T00:12:42.650Z,8.68
2018-12-22T00:15:12.158Z,9.90
2018-12-22T00:17:41.525Z,7.60
2018-12-22T00:20:10.867Z,7.78
2018-12-22T00:22:40.234Z,8.35
2018-12-22T00:25:09.530Z,6.53
2018-12-22T00:27:38.927Z,6.22
2018-12-22T00:30:08.906Z,7.05
2018-12-22T00:32:38.270Z,7.10
2018-12-22T00:35:08.124Z,10.75
2018-12-22T00:37:37.471Z,8.48
2018-12-22T00:40:06.913Z,9.33
2018-12-22T00:42:36.276Z,8.60
2018-12-22T00:45:08.351Z,7.25
2018-12-22T00:47:37.612Z,6.60
2018-12-22T00:50:08.852Z,6.12
2018-12-22T00:52:38.144Z,6.72
2018-12-22T00:55:07.547Z,7.42
2018-12-22T00:57:36.943Z,7.20
2018-12-22T01:00:08.656Z,6.92
2018-12-22T01:02:38.162Z,6.70
2018-12-22T01:05:07.522Z,7.30
2018-12-22T01:07:36.792Z,8.18
2018-12-22T01:10:08.124Z,8.68
2018-12-22T01:12:37.343Z,7.10
2018-12-22T01:15:07.118Z,7.17
2018-12-22T01:17:36.427Z,7.03
2018-12-22T01:20:06.767Z,8.33
2018-12-22T01:22:35.992Z,8.38
2018-12-22T01:25:05.903Z,7.50
2018-12-22T01:27:35.203Z,8.43
2018-12-22T01:30:05.051Z,8.98
2018-12-22T01:32:34.276Z,9.88
2018-12-22T01:35:03.554Z,11.08
2018-12-22T01:37:33.384Z,9.53
2018-12-22T01:40:02.683Z,11.45
2018-12-22T01:42:31.920Z,10.90
2018-12-22T01:45:07.838Z,9.23
2018-12-22T01:47:37.142Z,7.17
2018-12-22T01:50:07.454Z,6.60
2018-12-22T01:52:36.662Z,7.33
2018-12-22T01:55:06.786Z,12.95
2018-12-22T01:57:36.146Z,7.15
2018-12-22T02:00:07.331Z,6.67
2018-12-22T02:02:36.627Z,5.78
2018-12-22T02:05:06.542Z,5.47
2018-12-22T02:07:35.882Z,5.65
2018-12-22T02:10:05.558Z,5.05
2018-12-22T02:12:35.018Z,7.75
2018-12-22T02:15:04.816Z,5.90
2018-12-22T02:17:34.203Z,5.42
2018-12-22T02:20:03.679Z,8.08
2018-12-22T02:22:32.905Z,6.75
2018-12-22T02:25:02.471Z,6.15
2018-12-22T02:27:32.007Z,7.25
2018-12-22T02:30:01.273Z,7.70
2018-12-22T02:32:30.554Z,8.68
2018-12-22T02:34:59.807Z,6.45
2018-12-22T02:37:29.263Z,6.85
2018-12-22T02:39:58.464Z,8.05
2018-12-22T02:42:27.695Z,9.38
2018-12-22T02:44:57.047Z,7.55
2018-12-22T02:47:26.656Z,8.45
2018-12-22T02:49:56.187Z,8.05
2018-12-22T02:52:25.420Z,10.70
2018-12-22T02:54:57.097Z,8.03
2018-12-22T02:57:26.699Z,8.80
2018-12-22T02:59:56.329Z,7.42
2018-12-22T03:02:25.583Z,9.55
2018-12-22T03:04:54.930Z,9.15
2018-12-22T03:07:24.265Z,8.10
2018-12-22T03:09:53.483Z,6.35
2018-12-22T03:12:22.743Z,9.00
2018-12-22T03:14:52.006Z,12.58
2018-12-22T03:17:21.268Z,7.60
2018-12-22T03:19:50.904Z,7.35
2018-12-22T03:22:20.581Z,8.00
2018-12-22T03:24:49.907Z,8.68
2018-12-22T03:27:19.267Z,7.75
2018-12-22T03:29:48.608Z,7.42
2018-12-22T03:32:17.897Z,6.75
2018-12-22T03:34:47.519Z,7.10
2018-12-22T03:37:17.042Z,8.00
2018-12-22T03:39:46.292Z,6.42
2018-12-22T03:42:15.696Z,9.70
2018-12-22T03:44:44.915Z,9.13
2018-12-22T03:47:14.277Z,6.83
2018-12-22T03:49:43.641Z,8.13
2018-12-22T03:52:12.872Z,10.63
2018-12-22T03:54:42.186Z,8.00
2018-12-22T03:57:12.640Z,9.60
2018-12-22T03:59:41.975Z,10.82
2018-12-22T04:02:11.215Z,7.28
2018-12-22T04:04:40.475Z,10.80
2018-12-22T04:07:10.459Z,8.48
2018-12-22T04:09:39.976Z,9.58
2018-12-22T04:12:09.416Z,8.80
2018-12-22T04:14:41.181Z,9.83
2018-12-22T04:17:10.486Z,10.03
2018-12-22T04:19:39.787Z,9.58
2018-12-22T04:22:09.308Z,11.97
2018-12-22T04:24:38.981Z,10.40
2018-12-22T04:27:08.207Z,13.83
2018-12-22T04:29:37.874Z,8.98
2018-12-22T04:32:07.142Z,12.18
2018-12-22T04:34:37.502Z,10.08
2018-12-22T04:37:07.555Z,11.35
2018-12-22T04:39:37.032Z,11.35
2018-12-22T04:42:06.325Z,12.82
2018-12-22T04:44:35.875Z,10.98
2018-12-22T04:47:05.213Z,14.50
2018-12-22T04:49:34.479Z,11.00
2018-12-22T04:52:03.950Z,13.15
2018-12-22T04:54:33.143Z,11.60
2018-12-22T04:57:02.437Z,10.80
2018-12-22T04:59:31.880Z,14.18
2018-12-22T05:02:01.133Z,14.10
2018-12-22T05:04:30.337Z,14.13
2018-12-22T05:06:59.708Z,16.30
2018-12-22T05:09:29.005Z,11.63
2018-12-22T05:11:58.347Z,13.00
2018-12-22T05:14:27.635Z,11.10
2018-12-22T05:16:56.987Z,11.38
2018-12-22T05:19:31.064Z,16.00
2018-12-22T05:22:00.259Z,8.25
2018-12-22T05:24:29.461Z,10.50
2018-12-22T05:26:59.750Z,10.45
2018-12-22T05:29:30.987Z,10.68
2018-12-22T05:32:00.437Z,8.98
2018-12-22T05:34:29.663Z,7.55
2018-12-22T05:36:58.965Z,12.40
2018-12-22T05:39:28.371Z,11.88
2018-12-22T05:41:57.771Z,15.25
2018-12-22T05:44:27.476Z,16.80
2018-12-22T05:46:56.842Z,9.40
2018-12-22T05:49:26.280Z,13.03
2018-12-22T05:51:55.593Z,10.95
2018-12-22T05:54:24.900Z,9.45
2018-12-22T05:56:54.215Z,10.13
2018-12-22T05:59:23.644Z,11.65
2018-12-22T06:01:53.067Z,13.30
2018-12-22T06:04:23.343Z,13.88
2018-12-22T06:06:53.036Z,16.45
2018-12-22T06:09:22.325Z,18.12
2018-12-22T06:11:52.574Z,19.85
2018-12-22T06:14:21.980Z,17.17
2018-12-22T06:16:51.239Z,15.80
2018-12-22T06:19:20.685Z,14.85
2018-12-22T06:21:51.042Z,13.43
2018-12-22T06:24:20.270Z,18.45
2018-12-22T06:26:49.504Z,13.10
2018-12-22T06:29:18.829Z,15.85
2018-12-22T06:31:48.056Z,12.28
2018-12-22T06:34:17.296Z,12.82
2018-12-22T06:36:46.561Z,13.83
2018-12-22T06:39:15.860Z,15.05
2018-12-22T06:41:45.536Z,12.60
2018-12-22T06:44:14.820Z,18.37
2018-12-22T06:46:44.171Z,16.15
2018-12-22T06:49:13.581Z,14.50
2018-12-22T06:51:42.914Z,14.98
2018-12-22T06:54:12.566Z,14.25
2018-12-22T06:56:41.885Z,12.78
2018-12-22T06:59:11.156Z,14.73
2018-12-22T07:01:40.377Z,15.20
2018-12-22T07:04:09.634Z,12.18
2018-12-22T07:06:39.166Z,13.18
2018-12-22T07:09:08.670Z,14.53
2018-12-22T07:11:37.966Z,14.10
2018-12-22T07:14:09.455Z,9.90
2018-12-22T07:16:41.199Z,14.53
2018-12-22T07:19:13.474Z,10.35
2018-12-22T07:21:44.470Z,15.32
2018-12-22T07:24:15.219Z,12.45
2018-12-22T07:26:47.456Z,12.80
2018-12-22T07:29:19.473Z,12.55
2018-12-22T07:31:50.976Z,14.20
2018-12-22T07:34:23.351Z,10.43
2018-12-22T07:36:55.331Z,10.58
2018-12-22T07:39:26.953Z,14.45
2018-12-22T07:41:57.844Z,11.80
2018-12-22T07:44:29.917Z,9.35
2018-12-22T07:47:02.306Z,10.03
2018-12-22T07:49:33.675Z,13.70
2018-12-22T07:52:04.710Z,10.28
2018-12-22T07:54:36.297Z,11.10
2018-12-22T07:57:07.903Z,14.18
2018-12-22T07:59:40.392Z,11.05
2018-12-22T08:02:11.843Z,10.63
2018-12-22T08:04:42.863Z,8.38
2018-12-22T08:07:14.005Z,9.33
2018-12-22T08:09:44.722Z,8.95
2018-12-22T08:12:15.811Z,7.85
2018-12-22T08:14:47.149Z,11.93
2018-12-22T08:17:18.128Z,7.37
2018-12-22T08:19:50.573Z,16.55
2018-12-22T08:22:22.330Z,6.25
2018-12-22T08:24:53.037Z,8.58
2018-12-22T08:27:23.978Z,8.80
2018-12-22T08:29:55.714Z,6.97
2018-12-22T08:32:27.174Z,9.63
2018-12-22T08:34:58.721Z,19.90
2018-12-22T08:37:29.461Z,7.58
2018-12-22T08:40:00.735Z,8.10
2018-12-22T08:42:31.689Z,8.53
2018-12-22T08:45:02.523Z,8.83
2018-12-22T08:47:33.254Z,9.00
2018-12-22T08:50:09.034Z,8.15
2018-12-22T08:52:38.566Z,9.90
2018-12-22T08:55:08.427Z,11.03
2018-12-22T08:57:37.927Z,10.35
2018-12-22T09:00:10.222Z,10.03
2018-12-22T09:02:39.496Z,13.48
2018-12-22T09:05:08.739Z,20.35
2018-12-22T09:07:38.083Z,9.53
2018-12-22T09:10:08.848Z,9.73
2018-12-22T09:12:38.169Z,10.23
2018-12-22T09:15:08.879Z,10.75
2018-12-22T09:17:38.215Z,15.58
2018-12-22T09:20:09.633Z,12.28
2018-12-22T09:22:39.180Z,13.50
2018-12-22T09:25:09.275Z,11.73
2018-12-22T09:27:38.514Z,9.80
2018-12-22T09:30:11.853Z,11.73
2018-12-22T09:32:41.208Z,9.45
2018-12-22T09:35:10.584Z,12.47
2018-12-22T09:37:39.981Z,10.43
2018-12-22T09:40:11.480Z,10.53
2018-12-22T09:42:40.977Z,7.80
2018-12-22T09:45:10.420Z,7.15
2018-12-22T09:47:39.626Z,8.85
2018-12-22T09:50:11.925Z,12.03
2018-12-22T09:52:41.412Z,6.45
2018-12-22T09:55:17.172Z,7.60
2018-12-22T09:57:46.463Z,8.43
2018-12-22T10:00:15.778Z,7.80
2018-12-22T10:02:44.999Z,6.58
2018-12-22T10:05:14.312Z,8.05
2018-12-22T10:07:43.672Z,5.90
2018-12-22T10:10:16.099Z,9.28
2018-12-22T10:12:45.782Z,7.33
2018-12-22T10:15:15.035Z,5.92
2018-12-22T10:17:44.387Z,6.10
2018-12-22T10:20:13.695Z,6.65
2018-12-22T10:22:43.012Z,6.00
2018-12-22T10:25:12.504Z,5.75
2018-12-22T10:27:42.120Z,7.30
2018-12-22T10:30:16.120Z,8.58
2018-12-22T10:32:45.435Z,7.90
2018-12-22T10:35:21.434Z,8.18
2018-12-22T10:37:50.744Z,12.98
2018-12-22T10:40:20.045Z,7.72
2018-12-22T10:42:49.353Z,7.65
2018-12-22T10:45:18.670Z,7.92
2018-12-22T10:47:48.087Z,6.70
2018-12-22T10:50:17.291Z,6.70
2018-12-22T10:52:48.728Z,10.28
2018-12-22T10:55:18.048Z,7.30
2018-12-22T10:57:47.365Z,7.40
2018-12-22T11:00:18.112Z,8.28
2018-12-22T11:02:47.500Z,11.68
2018-12-22T11:05:17.742Z,10.05
2018-12-22T11:07:47.676Z,7.45
2018-12-22T11:10:22.368Z,12.73
2018-12-22T11:12:54.343Z,7.50
2018-12-22T11:15:25.323Z,9.73
2018-12-22T11:17:54.629Z,7.20
2018-12-22T11:20:24.106Z,6.62
2018-12-22T11:22:53.432Z,6.80
2018-12-22T11:25:25.005Z,10.25
2018-12-22T11:27:55.212Z,7.95
2018-12-22T11:30:34.124Z,7.92
2018-12-22T11:33:03.848Z,6.33
2018-12-22T11:35:33.153Z,8.55
2018-12-22T11:38:02.587Z,7.67
2018-12-22T11:40:31.939Z,8.55
2018-12-22T11:43:01.375Z,9.00
2018-12-22T11:45:31.101Z,12.28
2018-12-22T11:50:11.440Z,6.90
2018-12-22T11:52:40.776Z,10.88
2018-12-22T11:55:10.264Z,6.50
2018-12-22T11:57:39.614Z,5.53
2018-12-22T12:00:10.905Z,9.13
2018-12-22T12:02:40.192Z,8.20
2018-12-22T12:05:10.994Z,7.92
2018-12-22T12:07:40.611Z,7.05
2018-12-22T12:10:10.828Z,9.20
2018-12-22T12:12:40.188Z,9.50
2018-12-22T12:15:15.375Z,8.58
2018-12-22T12:18:59.881Z,9.13
2018-12-22T12:21:29.464Z,8.30
2018-12-22T12:24:00.462Z,7.85
2018-12-22T12:26:29.863Z,7.30
2018-12-22T12:28:59.319Z,8.20
2018-12-22T12:31:28.652Z,8.98
2018-12-22T12:33:57.974Z,8.10
2018-12-22T12:36:27.955Z,8.30
2018-12-22T12:38:57.295Z,7.53
2018-12-22T12:41:26.533Z,8.33
2018-12-22T12:43:56.478Z,8.90
2018-12-22T12:46:34.496Z,6.80
2018-12-22T12:49:04.387Z,10.75
2018-12-22T12:51:33.672Z,13.90
2018-12-22T12:54:03.020Z,8.68
2018-12-22T12:56:32.903Z,13.80
2018-12-22T12:59:03.261Z,9.50
2018-12-22T13:01:32.706Z,10.05
2018-12-22T13:04:02.784Z,10.98
2018-12-22T13:06:32.141Z,7.50
2018-12-22T13:09:01.542Z,7.85
2018-12-22T13:11:31.077Z,10.78
2018-12-22T13:14:03.320Z,9.65
2018-12-22T13:16:33.511Z,9.10
2018-12-22T13:19:02.794Z,11.57
2018-12-22T13:21:32.518Z,11.05
2018-12-22T13:24:02.635Z,9.88
2018-12-22T13:26:36.690Z,8.45
2018-12-22T13:29:03.307Z,8.20
2018-12-22T13:31:32.610Z,10.80
2018-12-22T13:34:01.931Z,10.13
2018-12-22T13:36:34.802Z,10.13
2018-12-22T13:39:08.068Z,8.40
2018-12-22T13:41:37.308Z,9.90
2018-12-22T13:44:06.582Z,13.62
2018-12-22T13:46:36.017Z,9.40
2018-12-22T13:49:05.657Z,13.05
2018-12-22T13:51:35.037Z,12.88
2018-12-22T13:54:04.612Z,10.30
2018-12-22T13:56:34.045Z,15.58
2018-12-22T13:59:03.376Z,12.58
2018-12-22T14:01:37.056Z,14.03
2018-12-22T14:04:06.304Z,11.88
2018-12-22T14:06:40.484Z,11.48
2018-12-22T14:09:10.643Z,12.40
2018-12-22T14:11:41.485Z,17.02
2018-12-22T14:14:14.471Z,10.90
2018-12-22T14:16:50.970Z,14.68
2018-12-22T14:19:20.493Z,15.32
2018-12-22T14:21:50.539Z,10.30
2018-12-22T14:24:32.807Z,15.35
2018-12-22T14:27:02.829Z,13.78
2018-12-22T14:29:32.227Z,16.93
2018-12-22T14:32:01.708Z,11.08
2018-12-22T14:34:38.992Z,14.53
2018-12-22T14:37:08.473Z,15.93
2018-12-22T14:39:37.908Z,27.95
2018-12-22T14:42:07.319Z,22.13
2018-12-22T14:44:36.706Z,12.18
2018-12-22T14:47:06.148Z,13.15
2018-12-22T14:49:35.547Z,12.95
2018-12-22T14:52:05.576Z,14.58
2018-12-22T14:54:35.460Z,13.35
2018-12-22T14:57:05.173Z,12.43
2018-12-22T14:59:34.986Z,14.13
2018-12-22T15:02:04.520Z,13.32
2018-12-22T15:04:33.940Z,14.53
2018-12-22T15:07:04.953Z,11.63
2018-12-22T15:09:34.356Z,11.83
2018-12-22T15:12:04.055Z,15.70
2018-12-22T15:14:33.557Z,11.85
2018-12-22T15:17:02.798Z,13.25
2018-12-22T15:19:34.182Z,14.07
2018-12-22T15:22:03.660Z,15.20
2018-12-22T15:24:32.980Z,11.12
2018-12-22T15:27:02.345Z,11.50
2018-12-22T15:29:31.763Z,13.55
2018-12-22T15:32:00.996Z,17.73
2018-12-22T15:34:30.407Z,17.30
2018-12-22T15:36:59.740Z,17.80
2018-12-22T15:39:29.013Z,16.50
2018-12-22T15:41:58.335Z,13.03
2018-12-22T15:44:27.613Z,13.72
2018-12-22T15:46:57.730Z,14.00
2018-12-22T15:49:27.177Z,17.32
2018-12-22T15:51:56.507Z,17.27
2018-12-22T15:54:26.966Z,13.05
2018-12-22T15:56:56.281Z,14.55
2018-12-22T15:59:25.606Z,12.78
2018-12-22T16:01:55.089Z,12.20
2018-12-22T16:04:24.556Z,9.70
2018-12-22T16:06:53.772Z,9.58
2018-12-22T16:09:23.061Z,9.58
2018-12-22T16:11:52.432Z,13.83
2018-12-22T16:14:21.851Z,12.58
2018-12-22T16:16:51.104Z,10.93
2018-12-22T16:19:20.392Z,27.00
2018-12-22T16:21:49.683Z,21.25
2018-12-22T16:24:18.975Z,16.30
2018-12-22T16:26:48.326Z,18.48
2018-12-22T16:29:25.423Z,11.22
2018-12-22T16:31:54.837Z,16.50
2018-12-22T16:34:24.200Z,10.03
2018-12-22T16:36:53.504Z,10.25
2018-12-22T16:39:22.927Z,22.22
2018-12-22T16:41:52.766Z,14.05
2018-12-22T16:44:22.727Z,15.28
2018-12-22T16:46:52.033Z,11.00
2018-12-22T16:49:21.289Z,8.60
2018-12-22T16:51:50.820Z,9.00
2018-12-22T16:54:20.072Z,9.20
2018-12-22T16:56:49.445Z,12.40
2018-12-22T16:59:19.079Z,10.28
2018-12-22T17:03:00.155Z,7.80
2018-12-22T17:05:29.616Z,12.63
2018-12-22T17:07:59.236Z,11.40
2018-12-22T17:10:38.336Z,12.93
2018-12-22T17:13:08.478Z,9.38
2018-12-22T17:15:40.100Z,15.80
2018-12-22T17:18:09.941Z,15.55
2018-12-22T17:20:39.310Z,14.50
2018-12-22T17:23:27.284Z,16.95
2018-12-22T17:26:00.776Z,15.35
2018-12-22T17:28:30.078Z,12.85
2018-12-22T17:30:59.536Z,12.50
2018-12-22T17:33:28.846Z,13.65
2018-12-22T17:35:58.409Z,16.07
2018-12-22T17:38:28.330Z,11.90
2018-12-22T17:40:59.943Z,19.42
2018-12-22T17:43:29.637Z,19.20
2018-12-22T17:45:59.168Z,22.62
2018-12-22T17:48:28.612Z,15.40
2018-12-22T17:50:57.920Z,17.57
2018-12-22T17:53:27.439Z,16.35
2018-12-22T17:55:56.847Z,15.25
2018-12-22T17:58:26.222Z,20.50
2018-12-22T18:00:56.908Z,13.53
2018-12-22T18:03:30.685Z,13.48
2018-12-22T18:06:00.318Z,13.78
2018-12-22T18:08:29.819Z,16.85
2018-12-22T18:10:59.217Z,21.15
2018-12-22T18:13:28.600Z,17.85
2018-12-22T18:15:58.082Z,21.12
2018-12-22T18:18:27.429Z,16.20
2018-12-22T18:20:56.749Z,27.25
2018-12-22T18:23:26.228Z,17.48
2018-12-22T18:25:56.559Z,16.10
2018-12-22T18:28:26.167Z,24.82
2018-12-22T18:30:55.822Z,24.20
2018-12-22T18:33:25.223Z,18.17
2018-12-22T18:38:44.517Z,20.02
2018-12-22T18:41:14.627Z,20.35
2018-12-22T18:43:44.835Z,18.10
2018-12-22T18:46:14.336Z,18.37
2018-12-22T18:48:44.044Z,17.23
2018-12-22T18:51:13.568Z,16.42
2018-12-22T18:53:43.026Z,19.82
2018-12-22T18:56:12.762Z,23.38
2018-12-22T18:58:42.046Z,17.02
2018-12-22T19:01:11.392Z,15.55
2018-12-22T19:03:44.904Z,19.12
2018-12-22T19:06:14.195Z,14.05
2018-12-22T19:08:43.468Z,16.55
2018-12-22T19:11:14.436Z,17.85
2018-12-22T19:13:43.806Z,20.20
2018-12-22T19:16:14.076Z,17.98
2018-12-22T19:18:43.561Z,23.87
2018-12-22T19:21:13.105Z,28.65
2018-12-22T19:23:42.412Z,25.30
2018-12-22T19:26:11.828Z,20.40
2018-12-22T19:28:41.180Z,19.60
2018-12-22T19:31:10.831Z,24.27
2018-12-22T19:33:40.148Z,19.30
2018-12-22T19:36:09.899Z,18.25
2018-12-22T19:38:39.582Z,29.95
2018-12-22T19:41:09.037Z,18.45
2018-12-22T19:43:38.930Z,19.65
2018-12-22T19:46:08.261Z,17.00
2018-12-22T19:48:37.850Z,20.20
2018-12-22T19:53:53.644Z,23.95
2018-12-22T19:56:23.374Z,19.77
2018-12-22T19:58:52.687Z,26.87
2018-12-22T20:01:21.980Z,25.88
2018-12-22T20:03:51.340Z,19.87
2018-12-22T20:06:21.664Z,17.98
2018-12-22T20:08:51.017Z,27.87
2018-12-22T20:11:22.542Z,18.90
2018-12-22T20:13:51.987Z,20.72
2018-12-22T20:16:21.332Z,20.75
2018-12-22T20:18:51.588Z,22.60
2018-12-22T20:21:20.939Z,28.75
2018-12-22T20:23:50.620Z,35.55
2018-12-22T20:26:19.914Z,26.30
2018-12-22T20:28:49.214Z,26.65
2018-12-22T20:31:18.568Z,25.70
2018-12-22T20:33:48.105Z,25.20
2018-12-22T20:36:17.515Z,25.52
2018-12-22T20:38:46.944Z,36.65
2018-12-22T20:41:16.380Z,30.80
2018-12-22T20:43:46.116Z,70.25
2018-12-22T20:46:16.517Z,23.00
2018-12-22T20:48:49.068Z,28.38
2018-12-22T20:51:20.435Z,21.25
2018-12-22T20:53:50.049Z,26.65
2018-12-22T20:56:24.813Z,19.77
2018-12-22T20:58:55.006Z,21.90
2018-12-22T21:01:24.420Z,27.07
2018-12-22T21:03:54.800Z,25.92
2018-12-22T21:06:31.540Z,25.60
2018-12-22T21:09:01.197Z,29.30
2018-12-22T21:11:31.987Z,23.67
2018-12-22T21:14:03.570Z,28.60
2018-12-22T21:16:32.914Z,34.58
2018-12-22T21:19:02.595Z,25.80
2018-12-22T21:21:33.110Z,26.15
2018-12-22T21:24:03.467Z,28.83
2018-12-22T21:26:32.838Z,26.17
2018-12-22T21:29:03.345Z,31.00
2018-12-22T21:31:34.111Z,34.48
2018-12-22T21:34:03.458Z,28.62
2018-12-22T21:36:32.726Z,29.05
2018-12-22T21:39:02.980Z,26.48
2018-12-22T21:41:32.999Z,30.85
2018-12-22T21:44:05.190Z,36.70
2018-12-22T21:46:35.685Z,40.58
2018-12-22T21:49:05.245Z,35.00
2018-12-22T21:51:37.876Z,25.57
2018-12-22T21:54:08.396Z,29.30
2018-12-22T21:56:37.737Z,33.75
2018-12-22T21:59:07.082Z,26.93
2018-12-22T22:01:36.911Z,33.88
2018-12-22T22:04:08.484Z,42.20
2018-12-22T22:06:41.474Z,34.92
2018-12-22T22:09:10.849Z,40.52
2018-12-22T22:11:40.724Z,25.25
2018-12-22T22:14:10.096Z,29.95
2018-12-22T22:16:39.435Z,27.27
2018-12-22T22:19:09.007Z,25.97
2018-12-22T22:21:38.352Z,30.80
2018-12-22T22:24:08.047Z,32.83
2018-12-22T22:26:38.803Z,24.67
2018-12-22T22:29:08.323Z,31.87
2018-12-22T22:31:38.105Z,34.45
2018-12-22T22:34:07.512Z,38.67
2018-12-22T22:36:36.880Z,29.35
2018-12-22T22:39:06.773Z,31.07
2018-12-22T22:41:36.135Z,34.00
2018-12-22T22:44:07.484Z,32.95
2018-12-22T22:46:38.815Z,32.10
2018-12-22T22:49:08.391Z,23.92
2018-12-22T22:51:37.908Z,30.37
2018-12-22T22:54:08.363Z,26.95
2018-12-22T22:56:39.515Z,24.15
2018-12-22T22:59:09.120Z,27.82
2018-12-22T23:01:43.519Z,28.73
2018-12-22T23:04:14.207Z,30.77
2018-12-22T23:06:43.738Z,21.02
2018-12-22T23:09:13.073Z,22.07
2018-12-22T23:11:42.420Z,25.50
2018-12-22T23:14:11.782Z,21.50
2018-12-22T23:16:41.395Z,25.40
2018-12-22T23:19:11.224Z,17.35
2018-12-22T23:21:40.576Z,17.73
2018-12-22T23:24:14.708Z,21.12
2018-12-22T23:26:49.082Z,19.85
2018-12-22T23:29:18.635Z,18.15
2018-12-22T23:31:48.217Z,30.02
2018-12-22T23:34:17.534Z,17.37
2018-12-22T23:36:46.754Z,28.50
2018-12-22T23:39:16.087Z,16.55
2018-12-22T23:41:46.458Z,32.23
2018-12-22T23:44:16.019Z,25.08
2018-12-22T23:46:52.771Z,18.05
2018-12-22T23:49:22.772Z,27.60
2018-12-22T23:51:52.048Z,22.20
2018-12-22T23:54:21.376Z,20.17
2018-12-22T23:56:50.723Z,31.42
2018-12-22T23:59:23.709Z,19.30
